Time;durP1;ratioP1;P1;durP2;ratioP2;P2;SDS_P1;SDS_P2;PMS_P1;PMS_P2;Temp;Humidity;BMP_temperature;BMP_pressure;BME280_temperature;BME280_humidity;BME280_pressure;Samples;Min_cycle;Max_cycle;Signal;HPM_P1;HPM_P2
2022/03/14 00:02:19;;;;;;;2.60;2.00;;;;;;;;;;5017007;28;20373;-68
2022/03/14 00:04:45;;;;;;;2.20;2.00;;;;;;;;;;5018152;28;20186;-71
2022/03/14 00:07:12;;;;;;;2.40;2.20;;;;;;;;;;5017327;28;20189;-68
2022/03/14 00:09:37;;;;;;;2.30;2.10;;;;;;;;;;5018337;28;20244;-68
2022/03/14 00:12:04;;;;;;;2.57;2.30;;;;;;;;;;5014965;28;20525;-68
2022/03/14 00:14:29;;;;;;;3.23;2.93;;;;;;;;;;5022671;28;20235;-70
2022/03/14 00:16:55;;;;;;;2.10;1.80;;;;;;;;;;5016375;28;20171;-68
2022/03/14 00:19:20;;;;;;;2.43;2.00;;;;;;;;;;4999522;28;20217;-69
2022/03/14 00:21:46;;;;;;;2.10;1.90;;;;;;;;;;5017447;28;20201;-70
2022/03/14 00:24:14;;;;;;;2.00;1.83;;;;;;;;;;5018391;28;20210;-68
2022/03/14 00:26:39;;;;;;;2.57;2.10;;;;;;;;;;5010962;28;20187;-69
2022/03/14 00:29:06;;;;;;;2.17;1.97;;;;;;;;;;5011142;28;20252;-68
2022/03/14 00:31:31;;;;;;;2.17;1.97;;;;;;;;;;5010770;28;20565;-68
2022/03/14 00:33:56;;;;;;;2.63;1.47;;;;;;;;;;5010600;28;20229;-68
2022/03/14 00:36:22;;;;;;;2.57;1.87;;;;;;;;;;5011100;28;20167;-69
2022/03/14 00:38:48;;;;;;;2.13;1.93;;;;;;;;;;5015739;28;20451;-68
2022/03/14 00:41:13;;;;;;;2.40;2.20;;;;;;;;;;5011531;28;20220;-68
2022/03/14 00:43:38;;;;;;;2.30;2.10;;;;;;;;;;5015190;28;20664;-69
2022/03/14 00:46:03;;;;;;;1.90;1.70;;;;;;;;;;5016052;28;20244;-68
2022/03/14 00:48:32;;;;;;;2.60;1.97;;;;;;;;;;5018819;28;20272;-68
2022/03/14 00:50:57;;;;;;;2.90;2.00;;;;;;;;;;5008627;28;20193;-68
2022/03/14 00:53:22;;;;;;;2.60;2.00;;;;;;;;;;5009230;28;20198;-68
2022/03/14 00:55:48;;;;;;;3.00;2.30;;;;;;;;;;5012402;28;20648;-68
2022/03/14 00:58:13;;;;;;;2.23;2.03;;;;;;;;;;5011289;28;20254;-68
2022/03/14 01:00:38;;;;;;;2.53;2.33;;;;;;;;;;5011780;28;20233;-68
2022/03/14 01:03:04;;;;;;;1.93;1.73;;;;;;;;;;5008267;28;20203;-68
2022/03/14 01:05:29;;;;;;;2.50;2.30;;;;;;;;;;4992448;28;20199;-68
2022/03/14 01:07:54;;;;;;;2.83;2.40;;;;;;;;;;5014547;28;20226;-67
2022/03/14 01:10:20;;;;;;;2.40;2.20;;;;;;;;;;5018080;28;20686;-68
2022/03/14 01:12:45;;;;;;;2.37;2.17;;;;;;;;;;5011173;28;20205;-68
2022/03/14 01:15:10;;;;;;;2.50;2.20;;;;;;;;;;5011212;28;20193;-70
2022/03/14 01:17:36;;;;;;;2.33;2.13;;;;;;;;;;5022161;28;20174;-68
2022/03/14 01:20:02;;;;;;;3.53;2.20;;;;;;;;;;5013071;28;20198;-68
2022/03/14 01:22:27;;;;;;;3.13;2.47;;;;;;;;;;5008904;28;20214;-68
2022/03/14 01:24:52;;;;;;;2.80;2.43;;;;;;;;;;5009464;28;20191;-68
2022/03/14 01:27:18;;;;;;;2.20;2.00;;;;;;;;;;5009461;28;20211;-68
2022/03/14 01:29:43;;;;;;;2.53;2.30;;;;;;;;;;5007274;28;20170;-68
2022/03/14 01:32:10;;;;;;;3.37;2.70;;;;;;;;;;5010680;28;20175;-68
2022/03/14 01:34:35;;;;;;;3.17;2.87;;;;;;;;;;5013551;28;20688;-68
2022/03/14 01:37:02;;;;;;;2.50;2.30;;;;;;;;;;5009513;28;20206;-69
2022/03/14 01:39:27;;;;;;;3.43;2.47;;;;;;;;;;5007776;28;20189;-68
2022/03/14 01:41:53;;;;;;;4.97;2.93;;;;;;;;;;5012987;28;20622;-68
2022/03/14 01:44:19;;;;;;;3.50;2.93;;;;;;;;;;5008115;28;20233;-69
2022/03/14 01:46:45;;;;;;;3.27;2.30;;;;;;;;;;5001193;28;20175;-68
2022/03/14 01:49:11;;;;;;;3.47;2.57;;;;;;;;;;5009079;28;20700;-68
2022/03/14 01:51:36;;;;;;;2.70;2.40;;;;;;;;;;5010245;28;20175;-67
2022/03/14 01:54:02;;;;;;;3.20;2.37;;;;;;;;;;5007761;28;20207;-68
2022/03/14 01:56:28;;;;;;;2.67;2.47;;;;;;;;;;5009936;28;20186;-68
2022/03/14 01:58:53;;;;;;;3.20;2.30;;;;;;;;;;5014581;28;20186;-68
2022/03/14 02:01:21;;;;;;;3.17;2.77;;;;;;;;;;5008779;28;20175;-68
2022/03/14 02:03:50;;;;;;;2.93;2.50;;;;;;;;;;5013684;28;20637;-68
2022/03/14 02:06:16;;;;;;;3.53;2.40;;;;;;;;;;5007940;28;20401;-68
2022/03/14 02:08:41;;;;;;;2.90;2.60;;;;;;;;;;5009357;28;20229;-67
2022/03/14 02:11:06;;;;;;;4.27;2.63;;;;;;;;;;4994788;28;20524;-68
2022/03/14 02:13:31;;;;;;;2.90;2.60;;;;;;;;;;5008183;28;20198;-68
2022/03/14 02:15:57;;;;;;;2.97;2.73;;;;;;;;;;5008371;28;20171;-68
2022/03/14 02:18:22;;;;;;;2.63;2.37;;;;;;;;;;5009232;28;20182;-68
2022/03/14 02:20:47;;;;;;;2.90;2.67;;;;;;;;;;5008969;28;20297;-68
2022/03/14 02:23:12;;;;;;;2.43;2.23;;;;;;;;;;5033165;23;20316;-68
2022/03/14 02:25:46;;;;;;;2.67;2.47;;;;;;;;;;5049000;28;20268;-69
2022/03/14 02:28:13;;;;;;;2.63;2.43;;;;;;;;;;5050121;28;20240;-67
2022/03/14 02:30:38;;;;;;;2.93;2.40;;;;;;;;;;5050625;28;20178;-70
2022/03/14 02:33:07;;;;;;;2.90;2.60;;;;;;;;;;5046981;28;20201;-69
2022/03/14 02:35:32;;;;;;;3.90;2.70;;;;;;;;;;5042880;28;20184;-69
2022/03/14 02:37:58;;;;;;;2.83;2.50;;;;;;;;;;5048291;28;20185;-69
2022/03/14 02:40:23;;;;;;;3.20;2.67;;;;;;;;;;5047172;28;20205;-67
2022/03/14 02:42:49;;;;;;;2.80;2.60;;;;;;;;;;5031319;28;20206;-69
2022/03/14 02:45:14;;;;;;;3.20;2.77;;;;;;;;;;5045470;28;20186;-69
2022/03/14 02:47:40;;;;;;;2.90;2.60;;;;;;;;;;5048964;28;20251;-69
2022/03/14 02:50:05;;;;;;;3.37;3.00;;;;;;;;;;5030222;28;20242;-69
2022/03/14 02:52:31;;;;;;;3.00;2.70;;;;;;;;;;5049424;28;20178;-68
2022/03/14 02:54:56;;;;;;;3.30;2.90;;;;;;;;;;5047893;28;20507;-70
2022/03/14 02:57:21;;;;;;;5.30;3.10;;;;;;;;;;5051631;28;20213;-69
2022/03/14 02:59:47;;;;;;;2.80;2.50;;;;;;;;;;5051698;28;20189;-70
2022/03/14 03:02:12;;;;;;;2.90;2.67;;;;;;;;;;5054437;28;20666;-69
2022/03/14 03:04:40;;;;;;;3.17;2.87;;;;;;;;;;5051535;28;20240;-68
2022/03/14 03:07:06;;;;;;;3.63;3.10;;;;;;;;;;5051673;28;20794;-68
2022/03/14 03:09:31;;;;;;;3.63;3.10;;;;;;;;;;5050159;28;20197;-68
2022/03/14 03:11:56;;;;;;;3.70;2.80;;;;;;;;;;5052412;28;20173;-69
2022/03/14 03:14:21;;;;;;;3.23;2.87;;;;;;;;;;5051554;28;20232;-69
2022/03/14 03:16:47;;;;;;;3.67;3.07;;;;;;;;;;5035910;28;20263;-69
2022/03/14 03:19:12;;;;;;;4.83;3.50;;;;;;;;;;5051878;28;20323;-69
2022/03/14 03:21:39;;;;;;;3.90;3.13;;;;;;;;;;5052982;28;20177;-69
2022/03/14 03:24:05;;;;;;;3.90;3.50;;;;;;;;;;5035319;28;20212;-68
2022/03/14 03:26:30;;;;;;;3.97;3.20;;;;;;;;;;5048045;28;20647;-69
2022/03/14 03:28:55;;;;;;;4.07;3.40;;;;;;;;;;5052418;28;20204;-69
2022/03/14 03:31:21;;;;;;;4.30;3.40;;;;;;;;;;5051776;28;20334;-69
2022/03/14 03:33:47;;;;;;;3.60;3.10;;;;;;;;;;5051968;28;20205;-67
2022/03/14 03:36:13;;;;;;;4.43;3.87;;;;;;;;;;5049924;28;20177;-70
2022/03/14 03:38:38;;;;;;;5.20;4.40;;;;;;;;;;5052353;28;20689;-69
2022/03/14 03:41:03;;;;;;;4.67;4.07;;;;;;;;;;5058539;28;20209;-69
2022/03/14 03:43:29;;;;;;;4.53;4.00;;;;;;;;;;5050970;28;20224;-69
2022/03/14 03:45:54;;;;;;;5.47;4.47;;;;;;;;;;5051162;28;20185;-69
2022/03/14 03:48:20;;;;;;;5.80;4.70;;;;;;;;;;5035467;28;20292;-66
2022/03/14 03:50:45;;;;;;;5.07;4.40;;;;;;;;;;5052381;28;20182;-66
2022/03/14 03:53:10;;;;;;;4.80;4.30;;;;;;;;;;5049531;28;20205;-69
2022/03/14 03:55:35;;;;;;;5.57;4.97;;;;;;;;;;5049907;28;20196;-69
2022/03/14 03:58:01;;;;;;;5.93;5.00;;;;;;;;;;5052748;28;20560;-68
2022/03/14 04:00:26;;;;;;;5.30;4.80;;;;;;;;;;5049629;28;20192;-70
2022/03/14 04:02:51;;;;;;;5.70;5.20;;;;;;;;;;5050680;28;20254;-69
2022/03/14 04:05:18;;;;;;;6.57;5.97;;;;;;;;;;5050276;28;20670;-69
2022/03/14 04:07:43;;;;;;;6.97;6.27;;;;;;;;;;5049813;28;20205;-69
2022/03/14 04:10:09;;;;;;;6.63;5.93;;;;;;;;;;5050906;28;20182;-68
2022/03/14 04:12:38;;;;;;;7.17;6.47;;;;;;;;;;5052066;28;20185;-69
2022/03/14 04:15:07;;;;;;;8.73;7.50;;;;;;;;;;5043517;28;20181;-69
2022/03/14 04:17:32;;;;;;;8.43;7.07;;;;;;;;;;5049512;28;20188;-69
2022/03/14 04:20:00;;;;;;;8.60;7.27;;;;;;;;;;5052384;28;20441;-69
2022/03/14 04:22:25;;;;;;;9.17;8.27;;;;;;;;;;5048498;28;20182;-69
2022/03/14 04:24:51;;;;;;;10.03;8.87;;;;;;;;;;5049848;28;20193;-69
2022/03/14 04:27:17;;;;;;;10.23;9.17;;;;;;;;;;5049251;28;20284;-69
2022/03/14 04:29:42;;;;;;;12.77;9.97;;;;;;;;;;5052792;28;20170;-69
2022/03/14 04:32:07;;;;;;;13.77;10.70;;;;;;;;;;5032179;28;20189;-69
2022/03/14 04:34:32;;;;;;;11.20;9.97;;;;;;;;;;5055105;28;20547;-69
2022/03/14 04:36:58;;;;;;;13.63;11.10;;;;;;;;;;5050579;28;20185;-69
2022/03/14 04:39:23;;;;;;;11.23;10.03;;;;;;;;;;5050190;28;20176;-70
2022/03/14 04:41:49;;;;;;;12.97;10.33;;;;;;;;;;5051270;28;20231;-70
2022/03/14 04:44:16;;;;;;;14.33;12.00;;;;;;;;;;5050016;28;20276;-67
2022/03/14 04:46:41;;;;;;;12.43;11.00;;;;;;;;;;5051321;28;20174;-67
2022/03/14 04:49:08;;;;;;;13.67;12.07;;;;;;;;;;5050736;28;20308;-69
2022/03/14 04:51:33;;;;;;;12.80;11.03;;;;;;;;;;5050688;28;20216;-69
2022/03/14 04:53:59;;;;;;;13.13;11.50;;;;;;;;;;5049871;28;20205;-70
2022/03/14 04:56:24;;;;;;;15.73;12.00;;;;;;;;;;5049218;28;20257;-69
2022/03/14 04:58:50;;;;;;;14.07;12.10;;;;;;;;;;5050853;28;20184;-67
2022/03/14 05:01:16;;;;;;;13.30;11.90;;;;;;;;;;5051208;28;20185;-70
2022/03/14 05:03:41;;;;;;;13.67;11.30;;;;;;;;;;5049391;28;20806;-68
2022/03/14 05:06:06;;;;;;;15.80;11.50;;;;;;;;;;5046564;28;20177;-69
2022/03/14 05:08:31;;;;;;;14.73;11.27;;;;;;;;;;5041786;28;20609;-69
2022/03/14 05:10:57;;;;;;;12.43;11.13;;;;;;;;;;5045427;28;20174;-69
2022/03/14 05:13:23;;;;;;;13.23;11.13;;;;;;;;;;5049472;28;20204;-69
2022/03/14 05:15:48;;;;;;;15.33;13.20;;;;;;;;;;5046380;28;20193;-70
2022/03/14 05:18:13;;;;;;;15.40;12.40;;;;;;;;;;5050148;28;20181;-70
2022/03/14 05:20:39;;;;;;;15.97;12.87;;;;;;;;;;5049596;28;20201;-70
2022/03/14 05:23:04;;;;;;;17.23;14.07;;;;;;;;;;5048612;28;20589;-70
2022/03/14 05:25:30;;;;;;;16.67;13.13;;;;;;;;;;5049142;28;20671;-70
2022/03/14 05:27:56;;;;;;;16.23;12.53;;;;;;;;;;5032691;28;20215;-70
2022/03/14 05:30:21;;;;;;;16.97;12.83;;;;;;;;;;5051416;28;20542;-69
2022/03/14 05:32:46;;;;;;;15.20;12.60;;;;;;;;;;5044355;28;20679;-69
2022/03/14 05:35:11;;;;;;;18.97;12.57;;;;;;;;;;5049317;28;20177;-69
2022/03/14 05:37:37;;;;;;;18.23;12.60;;;;;;;;;;5050030;28;20174;-68
2022/03/14 05:40:04;;;;;;;15.87;12.30;;;;;;;;;;5050649;28;20189;-69
2022/03/14 05:42:29;;;;;;;15.80;11.70;;;;;;;;;;5049114;28;20251;-69
2022/03/14 05:44:54;;;;;;;16.27;11.70;;;;;;;;;;5048203;28;20177;-67
2022/03/14 05:47:19;;;;;;;13.87;11.27;;;;;;;;;;5048959;28;20209;-69
2022/03/14 05:49:45;;;;;;;17.43;11.27;;;;;;;;;;5047866;28;20582;-69
2022/03/14 05:52:11;;;;;;;16.27;12.17;;;;;;;;;;5045805;28;20774;-69
2022/03/14 05:54:36;;;;;;;16.90;12.33;;;;;;;;;;5048445;28;20192;-69
2022/03/14 05:57:01;;;;;;;15.23;11.50;;;;;;;;;;5048575;28;20181;-69
2022/03/14 05:59:27;;;;;;;17.87;12.77;;;;;;;;;;5049653;28;20184;-71
2022/03/14 06:01:52;;;;;;;14.13;11.03;;;;;;;;;;5048127;28;20213;-67
2022/03/14 06:04:17;;;;;;;14.00;10.50;;;;;;;;;;5046683;28;20209;-69
2022/03/14 06:06:43;;;;;;;15.77;12.07;;;;;;;;;;5048620;28;20227;-69
2022/03/14 06:09:08;;;;;;;14.37;11.00;;;;;;;;;;5049348;28;20205;-69
2022/03/14 06:11:33;;;;;;;15.80;11.77;;;;;;;;;;5051262;28;20299;-68
2022/03/14 06:13:58;;;;;;;13.63;11.33;;;;;;;;;;5023604;28;20550;-68
2022/03/14 06:16:24;;;;;;;14.57;12.17;;;;;;;;;;5049482;28;20181;-69
2022/03/14 06:18:50;;;;;;;15.93;12.03;;;;;;;;;;5046355;28;20185;-69
2022/03/14 06:21:16;;;;;;;14.37;11.80;;;;;;;;;;5049787;28;20194;-69
2022/03/14 06:23:41;;;;;;;16.50;12.47;;;;;;;;;;5046023;28;20223;-69
2022/03/14 06:26:06;;;;;;;15.23;13.23;;;;;;;;;;5046508;28;20220;-67
2022/03/14 06:28:31;;;;;;;18.30;14.00;;;;;;;;;;5050178;28;20287;-69
2022/03/14 06:30:56;;;;;;;17.20;13.33;;;;;;;;;;5046809;28;20242;-70
2022/03/14 06:33:21;;;;;;;19.73;14.63;;;;;;;;;;5048691;28;20280;-70
2022/03/14 06:35:47;;;;;;;18.70;14.00;;;;;;;;;;5049163;28;20186;-70
2022/03/14 06:38:12;;;;;;;17.93;14.23;;;;;;;;;;5047187;28;20209;-69
2022/03/14 06:40:38;;;;;;;19.20;14.63;;;;;;;;;;5046896;28;20716;-70
2022/03/14 06:43:05;;;;;;;20.17;14.13;;;;;;;;;;5044873;28;20208;-70
2022/03/14 06:45:31;;;;;;;17.17;15.13;;;;;;;;;;5047956;28;20199;-70
2022/03/14 06:47:56;;;;;;;18.83;14.33;;;;;;;;;;5031099;28;20304;-70
2022/03/14 06:50:22;;;;;;;16.00;13.60;;;;;;;;;;5048536;28;20260;-68
2022/03/14 06:52:48;;;;;;;17.73;14.47;;;;;;;;;;5048343;28;20221;-67
2022/03/14 06:55:13;;;;;;;19.57;14.63;;;;;;;;;;5049813;28;20683;-67
2022/03/14 06:57:39;;;;;;;26.33;16.10;;;;;;;;;;5047482;28;20181;-68
2022/03/14 07:00:04;;;;;;;17.17;14.67;;;;;;;;;;5047745;28;20213;-68
2022/03/14 07:02:30;;;;;;;15.63;13.60;;;;;;;;;;5047581;28;20662;-70
2022/03/14 07:04:55;;;;;;;18.07;14.63;;;;;;;;;;5047694;28;20235;-69
2022/03/14 07:07:20;;;;;;;17.77;13.73;;;;;;;;;;5032496;28;20188;-67
2022/03/14 07:09:45;;;;;;;16.37;13.87;;;;;;;;;;5043256;28;20216;-69
2022/03/14 07:12:11;;;;;;;18.73;14.00;;;;;;;;;;5043453;28;20572;-69
2022/03/14 07:14:36;;;;;;;18.93;14.37;;;;;;;;;;5046259;28;20205;-70
2022/03/14 07:17:02;;;;;;;18.90;14.30;;;;;;;;;;5042455;28;20259;-69
2022/03/14 07:19:27;;;;;;;18.10;14.57;;;;;;;;;;5044608;28;20645;-70
2022/03/14 07:21:52;;;;;;;18.87;15.03;;;;;;;;;;5042387;28;20177;-69
2022/03/14 07:24:17;;;;;;;19.20;14.40;;;;;;;;;;5043737;28;20294;-69
2022/03/14 07:26:42;;;;;;;16.97;14.33;;;;;;;;;;5042793;28;20212;-67
2022/03/14 07:29:07;;;;;;;15.63;13.57;;;;;;;;;;5042913;28;20206;-69
2022/03/14 07:31:35;;;;;;;17.13;14.03;;;;;;;;;;5042196;28;20174;-69
2022/03/14 07:34:00;;;;;;;17.40;14.10;;;;;;;;;;5042440;28;20197;-69
2022/03/14 07:36:26;;;;;;;21.23;15.53;;;;;;;;;;5043404;28;20650;-66
2022/03/14 07:38:51;;;;;;;21.90;16.30;;;;;;;;;;5042748;28;20181;-68
2022/03/14 07:41:17;;;;;;;20.03;14.80;;;;;;;;;;5044016;28;20204;-69
2022/03/14 07:43:42;;;;;;;18.57;14.03;;;;;;;;;;5045131;28;20201;-69
2022/03/14 07:46:07;;;;;;;18.17;14.03;;;;;;;;;;5046073;28;20520;-67
2022/03/14 07:48:34;;;;;;;20.87;14.00;;;;;;;;;;5048135;28;20689;-68
2022/03/14 07:50:59;;;;;;;19.60;14.53;;;;;;;;;;5038929;28;20396;-68
2022/03/14 07:53:25;;;;;;;18.73;13.90;;;;;;;;;;5047248;28;20274;-67
2022/03/14 07:55:51;;;;;;;15.70;13.20;;;;;;;;;;5049894;28;20178;-68
2022/03/14 07:58:16;;;;;;;16.87;12.90;;;;;;;;;;5045260;28;20344;-68
2022/03/14 08:00:41;;;;;;;15.57;12.17;;;;;;;;;;5047214;28;20738;-67
2022/03/14 08:03:06;;;;;;;14.17;11.93;;;;;;;;;;5045566;28;20201;-68
2022/03/14 08:05:32;;;;;;;13.23;11.90;;;;;;;;;;5046559;28;20182;-68
2022/03/14 08:07:58;;;;;;;15.63;12.20;;;;;;;;;;5038568;28;20209;-68
2022/03/14 08:10:24;;;;;;;16.03;13.27;;;;;;;;;;5038718;28;20180;-68
2022/03/14 08:12:51;;;;;;;13.17;11.73;;;;;;;;;;5046121;28;20197;-67
2022/03/14 08:15:20;;;;;;;17.87;12.13;;;;;;;;;;5046241;28;20264;-67
2022/03/14 08:17:46;;;;;;;15.67;12.93;;;;;;;;;;5045524;28;20521;-68
2022/03/14 08:20:11;;;;;;;21.63;14.77;;;;;;;;;;5046696;28;20173;-67
2022/03/14 08:22:36;;;;;;;15.63;12.80;;;;;;;;;;5045989;28;20220;-68
2022/03/14 08:25:02;;;;;;;18.00;13.97;;;;;;;;;;5045606;28;20331;-68
2022/03/14 08:27:28;;;;;;;19.23;14.17;;;;;;;;;;5045496;28;20530;-68
2022/03/14 08:29:53;;;;;;;21.70;15.30;;;;;;;;;;5042960;28;20177;-68
2022/03/14 08:32:21;;;;;;;19.87;14.20;;;;;;;;;;5046072;28;20191;-70
2022/03/14 08:34:46;;;;;;;17.80;13.80;;;;;;;;;;5045881;28;20201;-68
2022/03/14 08:37:12;;;;;;;14.97;12.60;;;;;;;;;;5044302;28;20723;-68
2022/03/14 08:39:37;;;;;;;17.47;12.63;;;;;;;;;;5050438;28;20575;-68
2022/03/14 08:42:04;;;;;;;17.43;12.40;;;;;;;;;;5046431;28;20265;-68
2022/03/14 08:44:29;;;;;;;20.40;13.57;;;;;;;;;;5044043;28;20709;-69
2022/03/14 08:46:54;;;;;;;17.17;13.10;;;;;;;;;;5039611;28;20186;-68
2022/03/14 08:49:20;;;;;;;18.30;13.03;;;;;;;;;;5049296;28;20209;-68
2022/03/14 08:51:45;;;;;;;18.27;13.37;;;;;;;;;;5050773;28;20177;-68
2022/03/14 08:54:10;;;;;;;14.97;12.13;;;;;;;;;;5050468;28;20358;-68
2022/03/14 08:56:37;;;;;;;18.27;12.40;;;;;;;;;;5043728;28;20544;-70
2022/03/14 08:59:03;;;;;;;22.50;13.40;;;;;;;;;;5044114;28;20177;-68
2022/03/14 09:01:29;;;;;;;19.90;12.67;;;;;;;;;;5045838;28;20668;-68
2022/03/14 09:03:54;;;;;;;16.83;12.57;;;;;;;;;;5055020;28;20194;-68
2022/03/14 09:06:19;;;;;;;17.57;13.07;;;;;;;;;;5020562;28;20185;-68
2022/03/14 09:08:44;;;;;;;19.30;13.03;;;;;;;;;;5032814;28;20209;-68
2022/03/14 09:11:10;;;;;;;24.90;13.40;;;;;;;;;;5031658;28;20182;-68
2022/03/14 09:13:35;;;;;;;17.27;13.43;;;;;;;;;;5033657;28;20228;-68
2022/03/14 09:16:00;;;;;;;22.00;13.30;;;;;;;;;;5033026;28;20199;-68
2022/03/14 09:18:29;;;;;;;17.30;14.20;;;;;;;;;;5035465;28;20995;-68
2022/03/14 09:20:56;;;;;;;20.43;14.67;;;;;;;;;;5033820;28;20672;-68
2022/03/14 09:23:21;;;;;;;20.13;13.53;;;;;;;;;;5030495;28;20236;-68
2022/03/14 09:25:47;;;;;;;17.97;13.10;;;;;;;;;;5030151;28;20683;-68
2022/03/14 09:28:13;;;;;;;17.40;12.13;;;;;;;;;;5032687;28;20236;-68
2022/03/14 09:30:39;;;;;;;16.00;12.63;;;;;;;;;;5030516;28;20197;-68
2022/03/14 09:33:04;;;;;;;15.07;12.03;;;;;;;;;;5030591;28;20675;-68
2022/03/14 09:35:30;;;;;;;16.70;12.30;;;;;;;;;;5033793;28;20675;-68
2022/03/14 09:37:55;;;;;;;20.10;11.40;;;;;;;;;;5033351;28;20931;-68
2022/03/14 09:40:21;;;;;;;16.60;11.73;;;;;;;;;;5033348;28;20177;-69
2022/03/14 09:42:48;;;;;;;17.67;11.90;;;;;;;;;;5031869;28;20806;-68
2022/03/14 09:45:16;;;;;;;17.20;11.27;;;;;;;;;;5033694;28;20224;-68
2022/03/14 09:47:43;;;;;;;20.03;11.37;;;;;;;;;;5036182;28;20240;-68
2022/03/14 09:50:29;;;;;;;16.27;10.27;;;;;;;;;;5036349;28;20198;-68
2022/03/14 09:52:55;;;;;;;18.00;10.60;;;;;;;;;;5027467;28;20208;-68
2022/03/14 09:55:21;;;;;;;16.10;10.83;;;;;;;;;;5037775;28;20193;-68
2022/03/14 09:57:47;;;;;;;17.53;10.20;;;;;;;;;;5035564;28;20244;-68
2022/03/14 10:00:15;;;;;;;17.70;10.20;;;;;;;;;;5036236;28;20714;-68
2022/03/14 10:02:41;;;;;;;13.27;9.87;;;;;;;;;;5038164;28;20201;-68
2022/03/14 10:05:10;;;;;;;13.20;10.40;;;;;;;;;;5030160;28;20248;-68
2022/03/14 10:07:36;;;;;;;12.80;10.53;;;;;;;;;;5032981;28;20185;-68
2022/03/14 10:10:01;;;;;;;16.87;10.70;;;;;;;;;;5034670;28;20239;-68
2022/03/14 10:12:26;;;;;;;13.93;10.20;;;;;;;;;;5030546;28;20833;-68
2022/03/14 10:14:52;;;;;;;16.23;9.97;;;;;;;;;;5034299;28;20600;-68
2022/03/14 10:17:17;;;;;;;15.63;10.57;;;;;;;;;;5031183;28;20181;-68
2022/03/14 10:19:51;;;;;;;14.43;9.53;;;;;;;;;;5031744;28;20271;-68
2022/03/14 10:22:18;;;;;;;19.70;11.27;;;;;;;;;;5034624;28;20265;-68
2022/03/14 10:24:44;;;;;;;14.23;10.97;;;;;;;;;;5025461;28;20702;-68
2022/03/14 10:27:10;;;;;;;14.97;9.70;;;;;;;;;;5032250;28;20324;-68
2022/03/14 10:29:36;;;;;;;18.00;11.47;;;;;;;;;;5033899;28;20213;-69
2022/03/14 10:32:02;;;;;;;15.13;11.40;;;;;;;;;;5031160;28;20200;-68
2022/03/14 10:34:27;;;;;;;12.70;10.17;;;;;;;;;;5020742;28;20650;-68
2022/03/14 10:36:57;;;;;;;14.00;10.17;;;;;;;;;;5028049;28;20205;-68
2022/03/14 10:39:27;;;;;;;14.73;10.73;;;;;;;;;;5030623;28;20212;-68
2022/03/14 10:42:04;;;;;;;15.60;11.20;;;;;;;;;;5032200;28;20189;-68
2022/03/14 10:44:29;;;;;;;14.33;10.47;;;;;;;;;;5019627;28;20312;-68
2022/03/14 10:46:57;;;;;;;12.77;9.87;;;;;;;;;;5034116;28;20360;-70
2022/03/14 10:49:26;;;;;;;16.00;10.00;;;;;;;;;;5036000;28;20255;-68
2022/03/14 10:52:01;;;;;;;14.77;9.53;;;;;;;;;;5033215;28;20201;-68
2022/03/14 10:54:27;;;;;;;13.60;8.87;;;;;;;;;;5034159;28;20208;-68
2022/03/14 10:57:19;;;;;;;16.53;9.50;;;;;;;;;;5031180;28;20192;-68
2022/03/14 10:59:46;;;;;;;11.97;9.00;;;;;;;;;;5039513;28;20190;-68
2022/03/14 11:02:12;;;;;;;15.27;9.83;;;;;;;;;;5030911;28;20192;-68
2022/03/14 11:04:41;;;;;;;17.10;9.90;;;;;;;;;;5031396;28;20801;-69
2022/03/14 11:07:07;;;;;;;13.50;8.57;;;;;;;;;;5031259;28;20190;-68
2022/03/14 11:09:51;;;;;;;13.40;9.17;;;;;;;;;;5019456;28;20279;-68
2022/03/14 11:12:20;;;;;;;13.57;8.73;;;;;;;;;;5031019;28;20192;-68
2022/03/14 11:14:53;;;;;;;12.13;8.85;;;;;;;;;;5030404;28;20706;-68
2022/03/14 11:17:22;;;;;;;14.35;8.48;;;;;;;;;;5034774;28;20185;-68
2022/03/14 11:19:48;;;;;;;20.00;8.93;;;;;;;;;;5035093;28;20186;-68
2022/03/14 11:22:14;;;;;;;15.05;9.45;;;;;;;;;;5036193;28;20564;-68
2022/03/14 11:24:42;;;;;;;15.70;8.75;;;;;;;;;;5039593;28;20216;-68
2022/03/14 11:27:10;;;;;;;11.90;9.52;;;;;;;;;;5032837;28;20194;-68
2022/03/14 11:29:36;;;;;;;13.43;8.75;;;;;;;;;;5022745;28;20209;-68
2022/03/14 11:32:01;;;;;;;10.88;8.63;;;;;;;;;;5038675;28;20177;-66
2022/03/14 11:34:29;;;;;;;12.45;8.77;;;;;;;;;;5036018;28;20205;-68
2022/03/14 11:36:55;;;;;;;14.90;8.38;;;;;;;;;;5037993;28;20182;-68
2022/03/14 11:39:22;;;;;;;11.05;7.57;;;;;;;;;;5037333;28;20228;-68
2022/03/14 11:41:47;;;;;;;13.00;7.75;;;;;;;;;;5014193;28;20243;-67
2022/03/14 11:44:13;;;;;;;11.93;7.40;;;;;;;;;;5034242;28;20759;-68
2022/03/14 11:46:39;;;;;;;13.35;7.30;;;;;;;;;;5032845;28;20193;-68
2022/03/14 11:49:13;;;;;;;9.15;7.30;;;;;;;;;;5042975;28;20210;-68
2022/03/14 11:51:41;;;;;;;10.95;7.32;;;;;;;;;;5034345;28;20185;-68
2022/03/14 11:54:11;;;;;;;12.27;7.30;;;;;;;;;;5037805;28;20562;-68
2022/03/14 11:56:38;;;;;;;11.90;7.95;;;;;;;;;;5033534;28;20376;-68
2022/03/14 11:59:07;;;;;;;14.27;8.10;;;;;;;;;;5033399;28;20561;-67
2022/03/14 12:01:34;;;;;;;11.32;8.25;;;;;;;;;;5035340;28;20190;-67
2022/03/14 12:04:00;;;;;;;13.32;8.50;;;;;;;;;;5035286;28;20262;-68
2022/03/14 12:06:44;;;;;;;12.45;8.18;;;;;;;;;;5035191;28;20279;-68
2022/03/14 12:09:09;;;;;;;9.27;7.72;;;;;;;;;;5033842;28;20205;-70
2022/03/14 12:11:37;;;;;;;10.23;7.70;;;;;;;;;;5034937;28;20502;-69
2022/03/14 12:14:04;;;;;;;20.58;9.05;;;;;;;;;;5032858;28;20268;-69
2022/03/14 12:16:40;;;;;;;9.25;7.75;;;;;;;;;;5033972;28;20256;-69
2022/03/14 12:19:24;;;;;;;13.95;9.18;;;;;;;;;;5033839;28;20184;-69
2022/03/14 12:21:52;;;;;;;11.18;7.85;;;;;;;;;;5033020;28;20242;-67
2022/03/14 12:24:40;;;;;;;14.50;7.13;;;;;;;;;;5034158;28;20928;-69
2022/03/14 12:27:26;;;;;;;13.50;7.40;;;;;;;;;;5023911;28;20683;-69
2022/03/14 12:29:52;;;;;;;10.57;7.32;;;;;;;;;;5031823;28;20712;-68
2022/03/14 12:32:23;;;;;;;13.35;7.35;;;;;;;;;;5035561;28;20640;-69
2022/03/14 12:34:58;;;;;;;9.27;6.63;;;;;;;;;;5041402;28;20251;-69
2022/03/14 12:37:24;;;;;;;11.02;6.68;;;;;;;;;;5032674;28;20677;-68
2022/03/14 12:39:49;;;;;;;11.02;7.00;;;;;;;;;;5032815;28;20193;-69
2022/03/14 12:42:22;;;;;;;13.75;7.70;;;;;;;;;;5034533;28;20190;-69
2022/03/14 12:45:06;;;;;;;10.45;7.30;;;;;;;;;;5011777;28;20236;-69
2022/03/14 12:47:31;;;;;;;13.60;7.35;;;;;;;;;;5033969;28;20196;-67
2022/03/14 12:49:56;;;;;;;9.35;6.82;;;;;;;;;;5040693;28;20174;-70
2022/03/14 12:52:21;;;;;;;12.83;6.93;;;;;;;;;;5051939;28;20720;-69
2022/03/14 12:54:47;;;;;;;12.18;6.72;;;;;;;;;;5051427;28;20426;-69
2022/03/14 12:57:14;;;;;;;11.18;6.80;;;;;;;;;;5051417;28;20173;-69
2022/03/14 12:59:45;;;;;;;11.48;7.05;;;;;;;;;;5050052;28;20197;-70
2022/03/14 13:02:12;;;;;;;11.85;7.43;;;;;;;;;;5052018;28;20250;-69
2022/03/14 13:04:37;;;;;;;13.18;7.60;;;;;;;;;;5046160;28;20189;-69
2022/03/14 13:07:03;;;;;;;14.93;7.75;;;;;;;;;;5032828;28;20553;-70
2022/03/14 13:09:29;;;;;;;12.70;7.45;;;;;;;;;;5032464;28;20267;-69
2022/03/14 13:11:58;;;;;;;17.83;7.93;;;;;;;;;;5033339;28;20178;-68
2022/03/14 13:14:23;;;;;;;13.07;7.63;;;;;;;;;;5034383;28;20198;-68
2022/03/14 13:16:52;;;;;;;14.40;7.88;;;;;;;;;;5032642;28;20688;-70
2022/03/14 13:19:18;;;;;;;10.55;8.55;;;;;;;;;;5021484;28;20220;-67
2022/03/14 13:21:43;;;;;;;11.55;7.70;;;;;;;;;;5038245;28;20400;-69
2022/03/14 13:24:09;;;;;;;11.57;8.90;;;;;;;;;;5032685;28;20512;-70
2022/03/14 13:26:35;;;;;;;12.05;7.80;;;;;;;;;;5032785;28;20201;-70
2022/03/14 13:29:04;;;;;;;11.75;7.50;;;;;;;;;;5035377;28;20205;-69
2022/03/14 13:31:31;;;;;;;11.15;7.68;;;;;;;;;;5032496;28;20213;-69
2022/03/14 13:33:56;;;;;;;14.57;6.95;;;;;;;;;;5035869;28;21966;-69
2022/03/14 13:36:22;;;;;;;14.82;6.07;;;;;;;;;;5033755;28;20196;-69
2022/03/14 13:38:49;;;;;;;12.20;5.93;;;;;;;;;;5032574;28;20651;-69
2022/03/14 13:41:16;;;;;;;5.88;4.88;;;;;;;;;;5018419;28;20194;-69
2022/03/14 13:43:42;;;;;;;14.50;6.53;;;;;;;;;;5018962;28;20201;-69
2022/03/14 13:46:29;;;;;;;9.10;5.90;;;;;;;;;;5032642;28;20997;-69
2022/03/14 13:48:55;;;;;;;12.15;6.78;;;;;;;;;;5032193;28;20205;-67
2022/03/14 13:51:21;;;;;;;12.55;5.93;;;;;;;;;;5031303;28;20173;-69
2022/03/14 13:53:47;;;;;;;10.38;5.57;;;;;;;;;;5032413;28;20703;-69
2022/03/14 13:56:12;;;;;;;12.90;5.50;;;;;;;;;;5033263;28;20185;-69
2022/03/14 13:58:39;;;;;;;12.10;7.20;;;;;;;;;;5032113;28;20185;-67
2022/03/14 14:01:04;;;;;;;13.85;6.68;;;;;;;;;;5031644;28;20174;-69
2022/03/14 14:03:30;;;;;;;10.77;5.80;;;;;;;;;;5032140;28;20236;-69
2022/03/14 14:06:11;;;;;;;13.18;6.53;;;;;;;;;;5030951;28;20628;-69
2022/03/14 14:08:36;;;;;;;12.40;6.18;;;;;;;;;;5030836;28;20754;-68
2022/03/14 14:11:03;;;;;;;10.27;6.57;;;;;;;;;;5034444;28;20202;-68
2022/03/14 14:13:47;;;;;;;13.30;6.30;;;;;;;;;;5032958;28;20201;-70
2022/03/14 14:16:19;;;;;;;11.07;5.32;;;;;;;;;;5030097;28;20208;-68
2022/03/14 14:18:45;;;;;;;10.88;5.55;;;;;;;;;;5034937;28;20185;-68
2022/03/14 14:21:17;;;;;;;12.68;5.93;;;;;;;;;;5038893;28;20555;-68
2022/03/14 14:23:42;;;;;;;15.07;6.43;;;;;;;;;;5032636;28;20243;-67
2022/03/14 14:26:07;;;;;;;14.00;5.03;;;;;;;;;;5031483;28;20182;-68